West Eaton, New York
Current Conditions -  °F | °C
As of 7:36 PM on Thursday 27 Nov 2014 (Local Time) from KSYR Reporting Station
Light Snow Light Snow  
Wind Chill: 23°   Ceiling: 2000
Heat Index: 30°   Visibility: 9mi
Dew Point: 27°   Wind: 7mph
Humidity: 88%   Direction: 230°SW
Pressure: 30.05"   Gusts: NA
Location:  42.85°N, 75.66°W
Report Text: KSYR 280036Z 23006KT 9SM -SN BKN020 BKN039 OVC047 M01/M03 A3005 RMK AO2 P0000 T10111028
Loading
Personal Weather Stations






























Interactive Weather Map New forecast layout! Learn more

10-Day Weather Forecast

Advertisements
Track Severe Weather on mobile